sensor_id;sensor_type;location;lat;lon;timestamp;P1;durP1;ratioP1;P2;durP2;ratioP2
85753;SDS011;76193;51.076;-1.794;2024-02-26T00:01:48;6.57;;;4.65;;
85753;SDS011;76193;51.076;-1.794;2024-02-26T00:04:13;4.65;;;3.30;;
85753;SDS011;76193;51.076;-1.794;2024-02-26T00:06:39;5.50;;;3.50;;
85753;SDS011;76193;51.076;-1.794;2024-02-26T00:09:07;7.28;;;4.35;;
85753;SDS011;76193;51.076;-1.794;2024-02-26T00:11:33;5.13;;;3.40;;
85753;SDS011;76193;51.076;-1.794;2024-02-26T00:14:00;6.82;;;3.97;;
85753;SDS011;76193;51.076;-1.794;2024-02-26T00:16:25;5.13;;;3.13;;
85753;SDS011;76193;51.076;-1.794;2024-02-26T00:18:50;4.45;;;3.13;;
85753;SDS011;76193;51.076;-1.794;2024-02-26T00:21:16;5.75;;;3.45;;
85753;SDS011;76193;51.076;-1.794;2024-02-26T00:23:41;4.63;;;3.05;;
85753;SDS011;76193;51.076;-1.794;2024-02-26T00:26:07;8.18;;;3.00;;
85753;SDS011;76193;51.076;-1.794;2024-02-26T00:28:32;3.13;;;2.35;;
85753;SDS011;76193;51.076;-1.794;2024-02-26T00:30:58;4.60;;;2.75;;
85753;SDS011;76193;51.076;-1.794;2024-02-26T00:33:23;6.93;;;2.90;;
85753;SDS011;76193;51.076;-1.794;2024-02-26T00:35:49;4.03;;;2.92;;
85753;SDS011;76193;51.076;-1.794;2024-02-26T00:38:14;5.47;;;3.17;;
85753;SDS011;76193;51.076;-1.794;2024-02-26T00:40:39;4.93;;;2.83;;
85753;SDS011;76193;51.076;-1.794;2024-02-26T00:43:06;4.32;;;2.90;;
85753;SDS011;76193;51.076;-1.794;2024-02-26T00:45:31;6.78;;;3.60;;
85753;SDS011;76193;51.076;-1.794;2024-02-26T00:47:57;4.53;;;3.03;;
85753;SDS011;76193;51.076;-1.794;2024-02-26T00:50:23;5.55;;;3.28;;
85753;SDS011;76193;51.076;-1.794;2024-02-26T00:52:48;5.70;;;3.42;;
85753;SDS011;76193;51.076;-1.794;2024-02-26T00:55:13;4.65;;;3.10;;
85753;SDS011;76193;51.076;-1.794;2024-02-26T00:57:39;5.15;;;2.58;;
85753;SDS011;76193;51.076;-1.794;2024-02-26T01:00:05;3.47;;;2.67;;
85753;SDS011;76193;51.076;-1.794;2024-02-26T01:02:33;3.17;;;2.53;;
85753;SDS011;76193;51.076;-1.794;2024-02-26T01:04:59;4.07;;;2.88;;
85753;SDS011;76193;51.076;-1.794;2024-02-26T01:07:24;5.60;;;3.17;;
85753;SDS011;76193;51.076;-1.794;2024-02-26T01:09:50;5.93;;;3.60;;
85753;SDS011;76193;51.076;-1.794;2024-02-26T01:12:15;5.80;;;3.00;;
85753;SDS011;76193;51.076;-1.794;2024-02-26T01:14:41;3.78;;;2.72;;
85753;SDS011;76193;51.076;-1.794;2024-02-26T01:17:06;5.95;;;3.42;;
85753;SDS011;76193;51.076;-1.794;2024-02-26T01:19:31;4.13;;;3.20;;
85753;SDS011;76193;51.076;-1.794;2024-02-26T01:21:57;3.83;;;2.47;;
85753;SDS011;76193;51.076;-1.794;2024-02-26T01:24:22;3.72;;;2.90;;
85753;SDS011;76193;51.076;-1.794;2024-02-26T01:26:47;5.05;;;2.40;;
85753;SDS011;76193;51.076;-1.794;2024-02-26T01:29:13;4.90;;;3.67;;
85753;SDS011;76193;51.076;-1.794;2024-02-26T01:31:38;2.93;;;2.10;;
85753;SDS011;76193;51.076;-1.794;2024-02-26T01:34:03;4.43;;;2.85;;
85753;SDS011;76193;51.076;-1.794;2024-02-26T01:36:29;4.13;;;3.17;;
85753;SDS011;76193;51.076;-1.794;2024-02-26T01:38:54;3.80;;;2.65;;
85753;SDS011;76193;51.076;-1.794;2024-02-26T01:41:20;4.65;;;2.63;;
85753;SDS011;76193;51.076;-1.794;2024-02-26T01:43:45;5.35;;;2.67;;
85753;SDS011;76193;51.076;-1.794;2024-02-26T01:46:11;6.13;;;2.75;;
85753;SDS011;76193;51.076;-1.794;2024-02-26T01:48:39;4.65;;;3.55;;
85753;SDS011;76193;51.076;-1.794;2024-02-26T01:51:05;6.00;;;3.10;;
85753;SDS011;76193;51.076;-1.794;2024-02-26T01:53:31;12.02;;;3.28;;
85753;SDS011;76193;51.076;-1.794;2024-02-26T01:55:56;3.00;;;2.40;;
85753;SDS011;76193;51.076;-1.794;2024-02-26T01:58:22;6.53;;;2.78;;
85753;SDS011;76193;51.076;-1.794;2024-02-26T02:00:47;4.90;;;3.20;;
85753;SDS011;76193;51.076;-1.794;2024-02-26T02:03:13;5.22;;;2.50;;
85753;SDS011;76193;51.076;-1.794;2024-02-26T02:05:38;5.60;;;2.97;;
85753;SDS011;76193;51.076;-1.794;2024-02-26T02:08:07;4.22;;;2.85;;
85753;SDS011;76193;51.076;-1.794;2024-02-26T02:10:33;7.78;;;2.50;;
85753;SDS011;76193;51.076;-1.794;2024-02-26T02:12:59;4.28;;;2.60;;
85753;SDS011;76193;51.076;-1.794;2024-02-26T02:15:24;4.30;;;2.55;;
85753;SDS011;76193;51.076;-1.794;2024-02-26T02:17:49;4.68;;;2.40;;
85753;SDS011;76193;51.076;-1.794;2024-02-26T02:20:16;5.57;;;2.30;;
85753;SDS011;76193;51.076;-1.794;2024-02-26T02:22:45;2.83;;;2.22;;
85753;SDS011;76193;51.076;-1.794;2024-02-26T02:25:11;3.70;;;2.70;;
85753;SDS011;76193;51.076;-1.794;2024-02-26T02:27:36;4.07;;;2.92;;
85753;SDS011;76193;51.076;-1.794;2024-02-26T02:30:02;3.58;;;2.40;;
85753;SDS011;76193;51.076;-1.794;2024-02-26T02:32:27;3.50;;;2.53;;
85753;SDS011;76193;51.076;-1.794;2024-02-26T02:34:54;2.25;;;1.63;;
85753;SDS011;76193;51.076;-1.794;2024-02-26T02:37:19;4.95;;;2.45;;
85753;SDS011;76193;51.076;-1.794;2024-02-26T02:39:45;3.23;;;2.40;;
85753;SDS011;76193;51.076;-1.794;2024-02-26T02:42:10;3.28;;;2.28;;
85753;SDS011;76193;51.076;-1.794;2024-02-26T02:44:35;5.68;;;2.70;;
85753;SDS011;76193;51.076;-1.794;2024-02-26T02:47:01;3.58;;;2.35;;
85753;SDS011;76193;51.076;-1.794;2024-02-26T02:49:26;6.53;;;2.67;;
85753;SDS011;76193;51.076;-1.794;2024-02-26T02:51:51;2.80;;;2.20;;
85753;SDS011;76193;51.076;-1.794;2024-02-26T02:54:19;2.85;;;2.10;;
85753;SDS011;76193;51.076;-1.794;2024-02-26T02:56:44;4.05;;;2.50;;
85753;SDS011;76193;51.076;-1.794;2024-02-26T02:59:10;4.70;;;2.60;;
85753;SDS011;76193;51.076;-1.794;2024-02-26T03:01:35;4.70;;;2.05;;
85753;SDS011;76193;51.076;-1.794;2024-02-26T03:04:00;3.20;;;2.20;;
85753;SDS011;76193;51.076;-1.794;2024-02-26T03:06:26;4.80;;;3.13;;
85753;SDS011;76193;51.076;-1.794;2024-02-26T03:08:52;2.45;;;2.10;;
85753;SDS011;76193;51.076;-1.794;2024-02-26T03:11:19;2.30;;;1.92;;
85753;SDS011;76193;51.076;-1.794;2024-02-26T03:13:44;4.57;;;2.38;;
85753;SDS011;76193;51.076;-1.794;2024-02-26T03:16:10;4.85;;;1.77;;
85753;SDS011;76193;51.076;-1.794;2024-02-26T03:18:38;3.42;;;1.63;;
85753;SDS011;76193;51.076;-1.794;2024-02-26T03:21:04;2.17;;;1.75;;
85753;SDS011;76193;51.076;-1.794;2024-02-26T03:23:29;5.38;;;2.28;;
85753;SDS011;76193;51.076;-1.794;2024-02-26T03:25:56;3.13;;;2.00;;
85753;SDS011;76193;51.076;-1.794;2024-02-26T03:28:22;5.20;;;2.00;;
85753;SDS011;76193;51.076;-1.794;2024-02-26T03:30:48;2.05;;;1.70;;
85753;SDS011;76193;51.076;-1.794;2024-02-26T03:33:13;3.42;;;1.55;;
85753;SDS011;76193;51.076;-1.794;2024-02-26T03:35:39;2.75;;;1.90;;
85753;SDS011;76193;51.076;-1.794;2024-02-26T03:38:04;5.05;;;2.15;;
85753;SDS011;76193;51.076;-1.794;2024-02-26T03:40:29;5.70;;;1.90;;
85753;SDS011;76193;51.076;-1.794;2024-02-26T03:42:55;3.87;;;1.40;;
85753;SDS011;76193;51.076;-1.794;2024-02-26T03:45:22;3.08;;;2.10;;
85753;SDS011;76193;51.076;-1.794;2024-02-26T03:47:47;3.63;;;2.13;;
85753;SDS011;76193;51.076;-1.794;2024-02-26T03:50:13;2.92;;;1.85;;
85753;SDS011;76193;51.076;-1.794;2024-02-26T03:52:38;4.55;;;1.77;;
85753;SDS011;76193;51.076;-1.794;2024-02-26T03:55:03;2.70;;;1.73;;
85753;SDS011;76193;51.076;-1.794;2024-02-26T03:57:29;3.95;;;1.90;;
85753;SDS011;76193;51.076;-1.794;2024-02-26T03:59:55;6.78;;;1.73;;
85753;SDS011;76193;51.076;-1.794;2024-02-26T04:02:21;3.83;;;1.95;;
85753;SDS011;76193;51.076;-1.794;2024-02-26T04:04:48;4.50;;;2.17;;
85753;SDS011;76193;51.076;-1.794;2024-02-26T04:07:13;2.17;;;1.27;;
85753;SDS011;76193;51.076;-1.794;2024-02-26T04:09:39;3.20;;;1.20;;
85753;SDS011;76193;51.076;-1.794;2024-02-26T04:12:04;3.75;;;1.63;;
85753;SDS011;76193;51.076;-1.794;2024-02-26T04:14:30;3.53;;;1.70;;
85753;SDS011;76193;51.076;-1.794;2024-02-26T04:16:55;1.60;;;1.50;;
85753;SDS011;76193;51.076;-1.794;2024-02-26T04:19:20;4.37;;;1.40;;
85753;SDS011;76193;51.076;-1.794;2024-02-26T04:21:46;4.13;;;1.52;;
85753;SDS011;76193;51.076;-1.794;2024-02-26T04:24:11;6.72;;;1.90;;
85753;SDS011;76193;51.076;-1.794;2024-02-26T04:26:37;6.80;;;2.10;;
85753;SDS011;76193;51.076;-1.794;2024-02-26T04:29:02;2.55;;;1.48;;
85753;SDS011;76193;51.076;-1.794;2024-02-26T04:31:27;1.90;;;1.60;;
85753;SDS011;76193;51.076;-1.794;2024-02-26T04:33:53;2.42;;;1.88;;
85753;SDS011;76193;51.076;-1.794;2024-02-26T04:36:19;5.88;;;2.15;;
85753;SDS011;76193;51.076;-1.794;2024-02-26T04:38:44;4.10;;;2.17;;
85753;SDS011;76193;51.076;-1.794;2024-02-26T04:41:10;3.00;;;1.92;;
85753;SDS011;76193;51.076;-1.794;2024-02-26T04:43:36;1.70;;;1.55;;
85753;SDS011;76193;51.076;-1.794;2024-02-26T04:46:09;12.90;;;1.98;;
85753;SDS011;76193;51.076;-1.794;2024-02-26T04:48:36;7.47;;;2.10;;
85753;SDS011;76193;51.076;-1.794;2024-02-26T04:51:02;3.10;;;1.52;;
85753;SDS011;76193;51.076;-1.794;2024-02-26T04:53:28;6.15;;;1.70;;
85753;SDS011;76193;51.076;-1.794;2024-02-26T04:55:53;3.42;;;1.85;;
85753;SDS011;76193;51.076;-1.794;2024-02-26T04:58:19;5.93;;;1.57;;
85753;SDS011;76193;51.076;-1.794;2024-02-26T05:00:44;4.10;;;1.85;;
85753;SDS011;76193;51.076;-1.794;2024-02-26T05:03:09;3.20;;;1.07;;
85753;SDS011;76193;51.076;-1.794;2024-02-26T05:05:43;5.45;;;1.67;;
85753;SDS011;76193;51.076;-1.794;2024-02-26T05:08:09;2.78;;;1.38;;
85753;SDS011;76193;51.076;-1.794;2024-02-26T05:10:34;4.95;;;1.70;;
85753;SDS011;76193;51.076;-1.794;2024-02-26T05:13:04;3.30;;;1.60;;
85753;SDS011;76193;51.076;-1.794;2024-02-26T05:15:30;3.65;;;1.58;;
85753;SDS011;76193;51.076;-1.794;2024-02-26T05:17:55;4.93;;;1.50;;
85753;SDS011;76193;51.076;-1.794;2024-02-26T05:20:20;1.63;;;1.10;;
85753;SDS011;76193;51.076;-1.794;2024-02-26T05:22:46;5.88;;;1.40;;
85753;SDS011;76193;51.076;-1.794;2024-02-26T05:25:14;2.15;;;1.95;;
85753;SDS011;76193;51.076;-1.794;2024-02-26T05:27:40;4.55;;;1.20;;
85753;SDS011;76193;51.076;-1.794;2024-02-26T05:30:05;5.10;;;1.42;;
85753;SDS011;76193;51.076;-1.794;2024-02-26T05:32:31;2.80;;;1.02;;
85753;SDS011;76193;51.076;-1.794;2024-02-26T05:34:56;3.10;;;1.60;;
85753;SDS011;76193;51.076;-1.794;2024-02-26T05:37:22;2.47;;;0.73;;
85753;SDS011;76193;51.076;-1.794;2024-02-26T05:39:47;3.63;;;1.05;;
85753;SDS011;76193;51.076;-1.794;2024-02-26T05:42:13;1.35;;;1.00;;
85753;SDS011;76193;51.076;-1.794;2024-02-26T05:44:38;6.38;;;1.38;;
85753;SDS011;76193;51.076;-1.794;2024-02-26T05:47:04;1.40;;;1.23;;
85753;SDS011;76193;51.076;-1.794;2024-02-26T05:49:29;16.00;;;1.45;;
85753;SDS011;76193;51.076;-1.794;2024-02-26T05:51:55;1.05;;;0.88;;
85753;SDS011;76193;51.076;-1.794;2024-02-26T05:54:20;4.15;;;1.40;;
85753;SDS011;76193;51.076;-1.794;2024-02-26T05:56:45;4.20;;;1.60;;
85753;SDS011;76193;51.076;-1.794;2024-02-26T05:59:11;1.40;;;1.10;;
85753;SDS011;76193;51.076;-1.794;2024-02-26T06:01:36;2.80;;;1.98;;
85753;SDS011;76193;51.076;-1.794;2024-02-26T06:04:01;0.88;;;0.82;;
85753;SDS011;76193;51.076;-1.794;2024-02-26T06:06:27;3.83;;;1.40;;
85753;SDS011;76193;51.076;-1.794;2024-02-26T06:08:52;4.50;;;1.63;;
85753;SDS011;76193;51.076;-1.794;2024-02-26T06:11:18;3.47;;;1.38;;
85753;SDS011;76193;51.076;-1.794;2024-02-26T06:13:43;2.22;;;1.90;;
85753;SDS011;76193;51.076;-1.794;2024-02-26T06:16:08;1.20;;;1.10;;
85753;SDS011;76193;51.076;-1.794;2024-02-26T06:18:34;4.97;;;1.65;;
85753;SDS011;76193;51.076;-1.794;2024-02-26T06:20:59;1.85;;;1.40;;
85753;SDS011;76193;51.076;-1.794;2024-02-26T06:23:25;2.38;;;1.40;;
85753;SDS011;76193;51.076;-1.794;2024-02-26T06:25:51;2.30;;;1.52;;
85753;SDS011;76193;51.076;-1.794;2024-02-26T06:28:17;2.97;;;1.40;;
85753;SDS011;76193;51.076;-1.794;2024-02-26T06:30:42;2.30;;;1.50;;
85753;SDS011;76193;51.076;-1.794;2024-02-26T06:33:07;1.25;;;0.77;;
85753;SDS011;76193;51.076;-1.794;2024-02-26T06:35:33;2.45;;;1.40;;
85753;SDS011;76193;51.076;-1.794;2024-02-26T06:37:58;1.80;;;1.10;;
85753;SDS011;76193;51.076;-1.794;2024-02-26T06:40:24;3.67;;;1.17;;
85753;SDS011;76193;51.076;-1.794;2024-02-26T06:42:50;3.28;;;1.70;;
85753;SDS011;76193;51.076;-1.794;2024-02-26T06:45:16;3.17;;;1.40;;
85753;SDS011;76193;51.076;-1.794;2024-02-26T06:47:41;3.55;;;1.83;;
85753;SDS011;76193;51.076;-1.794;2024-02-26T06:50:07;2.15;;;1.27;;
85753;SDS011;76193;51.076;-1.794;2024-02-26T06:52:33;2.50;;;1.00;;
85753;SDS011;76193;51.076;-1.794;2024-02-26T06:54:59;4.28;;;1.50;;
85753;SDS011;76193;51.076;-1.794;2024-02-26T06:57:24;1.90;;;1.38;;
85753;SDS011;76193;51.076;-1.794;2024-02-26T06:59:50;1.42;;;1.13;;
85753;SDS011;76193;51.076;-1.794;2024-02-26T07:02:16;3.65;;;1.52;;
85753;SDS011;76193;51.076;-1.794;2024-02-26T07:04:42;2.65;;;1.55;;
85753;SDS011;76193;51.076;-1.794;2024-02-26T07:07:07;9.65;;;2.00;;
85753;SDS011;76193;51.076;-1.794;2024-02-26T07:09:33;1.85;;;1.05;;
85753;SDS011;76193;51.076;-1.794;2024-02-26T07:11:59;3.00;;;1.23;;
85753;SDS011;76193;51.076;-1.794;2024-02-26T07:14:24;4.50;;;1.65;;
85753;SDS011;76193;51.076;-1.794;2024-02-26T07:16:50;2.05;;;1.30;;
85753;SDS011;76193;51.076;-1.794;2024-02-26T07:19:15;3.00;;;1.27;;
85753;SDS011;76193;51.076;-1.794;2024-02-26T07:21:41;3.28;;;1.20;;
85753;SDS011;76193;51.076;-1.794;2024-02-26T07:24:06;2.85;;;1.45;;
85753;SDS011;76193;51.076;-1.794;2024-02-26T07:26:32;5.43;;;1.88;;
85753;SDS011;76193;51.076;-1.794;2024-02-26T07:28:57;1.92;;;1.13;;
85753;SDS011;76193;51.076;-1.794;2024-02-26T07:31:23;4.00;;;1.58;;
85753;SDS011;76193;51.076;-1.794;2024-02-26T07:33:48;1.70;;;1.20;;
85753;SDS011;76193;51.076;-1.794;2024-02-26T07:36:13;2.38;;;1.40;;
85753;SDS011;76193;51.076;-1.794;2024-02-26T07:38:39;1.55;;;1.13;;
85753;SDS011;76193;51.076;-1.794;2024-02-26T07:41:04;5.60;;;1.85;;
85753;SDS011;76193;51.076;-1.794;2024-02-26T07:43:30;6.05;;;1.63;;
85753;SDS011;76193;51.076;-1.794;2024-02-26T07:45:55;0.98;;;0.90;;
85753;SDS011;76193;51.076;-1.794;2024-02-26T07:48:20;3.03;;;1.60;;
85753;SDS011;76193;51.076;-1.794;2024-02-26T07:50:46;1.90;;;1.23;;
85753;SDS011;76193;51.076;-1.794;2024-02-26T07:53:11;4.85;;;2.00;;
85753;SDS011;76193;51.076;-1.794;2024-02-26T07:55:36;2.22;;;1.33;;
85753;SDS011;76193;51.076;-1.794;2024-02-26T07:58:02;2.40;;;1.02;;
85753;SDS011;76193;51.076;-1.794;2024-02-26T08:00:27;5.22;;;1.60;;
85753;SDS011;76193;51.076;-1.794;2024-02-26T08:02:53;1.80;;;1.20;;
85753;SDS011;76193;51.076;-1.794;2024-02-26T08:05:18;1.67;;;1.17;;
85753;SDS011;76193;51.076;-1.794;2024-02-26T08:07:44;3.90;;;1.58;;
85753;SDS011;76193;51.076;-1.794;2024-02-26T08:10:09;2.90;;;0.93;;
85753;SDS011;76193;51.076;-1.794;2024-02-26T08:12:36;4.15;;;1.60;;
85753;SDS011;76193;51.076;-1.794;2024-02-26T08:15:01;2.60;;;1.40;;
85753;SDS011;76193;51.076;-1.794;2024-02-26T08:17:27;2.63;;;1.60;;
85753;SDS011;76193;51.076;-1.794;2024-02-26T08:19:52;2.47;;;0.93;;
85753;SDS011;76193;51.076;-1.794;2024-02-26T08:22:18;2.88;;;0.80;;
85753;SDS011;76193;51.076;-1.794;2024-02-26T08:24:43;3.42;;;1.30;;
85753;SDS011;76193;51.076;-1.794;2024-02-26T08:27:08;9.43;;;2.22;;
85753;SDS011;76193;51.076;-1.794;2024-02-26T08:29:34;2.90;;;1.15;;
85753;SDS011;76193;51.076;-1.794;2024-02-26T08:31:59;4.45;;;1.10;;
85753;SDS011;76193;51.076;-1.794;2024-02-26T08:34:25;5.18;;;1.27;;
85753;SDS011;76193;51.076;-1.794;2024-02-26T08:36:50;2.35;;;1.20;;
85753;SDS011;76193;51.076;-1.794;2024-02-26T08:39:16;3.17;;;1.10;;
85753;SDS011;76193;51.076;-1.794;2024-02-26T08:41:42;2.92;;;1.20;;
85753;SDS011;76193;51.076;-1.794;2024-02-26T08:44:08;1.80;;;1.60;;
85753;SDS011;76193;51.076;-1.794;2024-02-26T08:46:33;1.13;;;0.40;;
85753;SDS011;76193;51.076;-1.794;2024-02-26T08:48:59;3.45;;;1.45;;
85753;SDS011;76193;51.076;-1.794;2024-02-26T08:51:25;4.07;;;1.58;;
85753;SDS011;76193;51.076;-1.794;2024-02-26T08:53:50;1.65;;;0.90;;
85753;SDS011;76193;51.076;-1.794;2024-02-26T08:56:16;0.60;;;0.52;;
85753;SDS011;76193;51.076;-1.794;2024-02-26T08:58:42;4.35;;;1.08;;
85753;SDS011;76193;51.076;-1.794;2024-02-26T09:01:08;0.40;;;0.40;;
85753;SDS011;76193;51.076;-1.794;2024-02-26T09:03:33;2.80;;;0.90;;
85753;SDS011;76193;51.076;-1.794;2024-02-26T09:05:59;4.45;;;1.00;;
85753;SDS011;76193;51.076;-1.794;2024-02-26T09:08:24;0.60;;;0.60;;
85753;SDS011;76193;51.076;-1.794;2024-02-26T09:10:50;3.05;;;1.13;;
85753;SDS011;76193;51.076;-1.794;2024-02-26T09:13:15;3.03;;;0.85;;
85753;SDS011;76193;51.076;-1.794;2024-02-26T09:15:40;3.70;;;1.15;;
85753;SDS011;76193;51.076;-1.794;2024-02-26T09:18:06;1.67;;;0.63;;
85753;SDS011;76193;51.076;-1.794;2024-02-26T09:20:31;0.83;;;0.77;;
85753;SDS011;76193;51.076;-1.794;2024-02-26T09:22:56;2.83;;;0.95;;
85753;SDS011;76193;51.076;-1.794;2024-02-26T09:25:22;2.00;;;0.90;;
85753;SDS011;76193;51.076;-1.794;2024-02-26T09:27:47;5.07;;;1.40;;
85753;SDS011;76193;51.076;-1.794;2024-02-26T09:30:13;0.98;;;0.90;;
85753;SDS011;76193;51.076;-1.794;2024-02-26T09:32:39;2.63;;;0.88;;
85753;SDS011;76193;51.076;-1.794;2024-02-26T09:35:05;1.15;;;0.95;;
85753;SDS011;76193;51.076;-1.794;2024-02-26T09:37:31;2.55;;;1.08;;
85753;SDS011;76193;51.076;-1.794;2024-02-26T09:39:56;1.92;;;0.85;;
85753;SDS011;76193;51.076;-1.794;2024-02-26T09:42:22;0.88;;;0.88;;
85753;SDS011;76193;51.076;-1.794;2024-02-26T09:44:55;3.38;;;0.88;;
85753;SDS011;76193;51.076;-1.794;2024-02-26T09:47:23;0.93;;;0.65;;
85753;SDS011;76193;51.076;-1.794;2024-02-26T09:49:48;1.45;;;1.10;;
85753;SDS011;76193;51.076;-1.794;2024-02-26T09:52:14;1.60;;;0.90;;
85753;SDS011;76193;51.076;-1.794;2024-02-26T09:54:40;1.33;;;0.85;;
85753;SDS011;76193;51.076;-1.794;2024-02-26T09:57:06;2.20;;;1.30;;
85753;SDS011;76193;51.076;-1.794;2024-02-26T09:59:39;3.03;;;1.30;;
85753;SDS011;76193;51.076;-1.794;2024-02-26T10:02:06;0.60;;;0.60;;
85753;SDS011;76193;51.076;-1.794;2024-02-26T10:04:34;1.95;;;1.00;;
85753;SDS011;76193;51.076;-1.794;2024-02-26T10:07:00;5.60;;;1.20;;
85753;SDS011;76193;51.076;-1.794;2024-02-26T10:09:28;2.08;;;1.20;;
85753;SDS011;76193;51.076;-1.794;2024-02-26T10:11:54;2.00;;;1.48;;
85753;SDS011;76193;51.076;-1.794;2024-02-26T10:14:20;1.60;;;0.93;;
85753;SDS011;76193;51.076;-1.794;2024-02-26T10:16:46;1.20;;;0.85;;
85753;SDS011;76193;51.076;-1.794;2024-02-26T10:19:24;1.25;;;0.98;;
85753;SDS011;76193;51.076;-1.794;2024-02-26T10:21:56;1.08;;;0.98;;
85753;SDS011;76193;51.076;-1.794;2024-02-26T10:24:22;2.90;;;1.70;;
85753;SDS011;76193;51.076;-1.794;2024-02-26T10:26:48;2.50;;;1.02;;
85753;SDS011;76193;51.076;-1.794;2024-02-26T10:29:14;5.32;;;1.38;;
85753;SDS011;76193;51.076;-1.794;2024-02-26T10:31:41;1.50;;;1.08;;
85753;SDS011;76193;51.076;-1.794;2024-02-26T10:34:07;1.40;;;0.90;;
85753;SDS011;76193;51.076;-1.794;2024-02-26T10:36:33;2.22;;;1.17;;
85753;SDS011;76193;51.076;-1.794;2024-02-26T10:39:01;7.15;;;1.55;;
85753;SDS011;76193;51.076;-1.794;2024-02-26T10:41:27;4.55;;;1.20;;
85753;SDS011;76193;51.076;-1.794;2024-02-26T10:43:52;7.10;;;1.90;;
85753;SDS011;76193;51.076;-1.794;2024-02-26T10:46:19;3.28;;;1.05;;
85753;SDS011;76193;51.076;-1.794;2024-02-26T10:48:51;2.50;;;1.00;;
85753;SDS011;76193;51.076;-1.794;2024-02-26T10:51:17;1.58;;;1.13;;
85753;SDS011;76193;51.076;-1.794;2024-02-26T10:53:46;5.32;;;1.75;;
85753;SDS011;76193;51.076;-1.794;2024-02-26T10:56:13;2.20;;;1.00;;
85753;SDS011;76193;51.076;-1.794;2024-02-26T10:58:40;2.40;;;1.10;;
85753;SDS011;76193;51.076;-1.794;2024-02-26T11:01:06;2.15;;;0.65;;
85753;SDS011;76193;51.076;-1.794;2024-02-26T11:03:31;2.78;;;0.88;;
85753;SDS011;76193;51.076;-1.794;2024-02-26T11:06:01;2.55;;;1.13;;
85753;SDS011;76193;51.076;-1.794;2024-02-26T11:08:27;0.68;;;0.68;;
85753;SDS011;76193;51.076;-1.794;2024-02-26T11:10:53;2.60;;;1.00;;
85753;SDS011;76193;51.076;-1.794;2024-02-26T11:13:19;1.95;;;1.13;;
85753;SDS011;76193;51.076;-1.794;2024-02-26T11:15:48;0.60;;;0.60;;
85753;SDS011;76193;51.076;-1.794;2024-02-26T11:18:14;4.10;;;0.95;;
85753;SDS011;76193;51.076;-1.794;2024-02-26T11:20:40;1.00;;;0.75;;
85753;SDS011;76193;51.076;-1.794;2024-02-26T11:23:06;1.85;;;0.77;;
85753;SDS011;76193;51.076;-1.794;2024-02-26T11:25:32;5.85;;;1.45;;
85753;SDS011;76193;51.076;-1.794;2024-02-26T11:28:00;4.60;;;1.08;;
85753;SDS011;76193;51.076;-1.794;2024-02-26T11:30:28;2.08;;;0.68;;
85753;SDS011;76193;51.076;-1.794;2024-02-26T11:32:55;2.50;;;1.17;;
85753;SDS011;76193;51.076;-1.794;2024-02-26T11:35:21;1.35;;;1.10;;
85753;SDS011;76193;51.076;-1.794;2024-02-26T11:37:56;0.93;;;0.90;;
85753;SDS011;76193;51.076;-1.794;2024-02-26T11:40:25;2.20;;;0.88;;
85753;SDS011;76193;51.076;-1.794;2024-02-26T11:42:51;5.05;;;1.83;;
85753;SDS011;76193;51.076;-1.794;2024-02-26T11:50:54;1.20;;;0.75;;
85753;SDS011;76193;51.076;-1.794;2024-02-26T11:53:24;1.63;;;0.80;;
85753;SDS011;76193;51.076;-1.794;2024-02-26T11:56:12;3.40;;;1.15;;
85753;SDS011;76193;51.076;-1.794;2024-02-26T11:58:41;2.42;;;1.50;;
85753;SDS011;76193;51.076;-1.794;2024-02-26T12:01:35;3.72;;;1.60;;
85753;SDS011;76193;51.076;-1.794;2024-02-26T12:04:13;2.38;;;1.25;;
85753;SDS011;76193;51.076;-1.794;2024-02-26T12:06:45;4.55;;;1.33;;
85753;SDS011;76193;51.076;-1.794;2024-02-26T12:09:11;3.40;;;1.00;;
85753;SDS011;76193;51.076;-1.794;2024-02-26T12:11:38;1.38;;;0.75;;
85753;SDS011;76193;51.076;-1.794;2024-02-26T12:14:05;1.95;;;0.88;;
85753;SDS011;76193;51.076;-1.794;2024-02-26T12:16:34;2.08;;;0.80;;
85753;SDS011;76193;51.076;-1.794;2024-02-26T12:19:01;4.35;;;1.00;;
85753;SDS011;76193;51.076;-1.794;2024-02-26T12:21:28;2.42;;;0.88;;
85753;SDS011;76193;51.076;-1.794;2024-02-26T12:23:54;1.53;;;1.10;;
85753;SDS011;76193;51.076;-1.794;2024-02-26T12:26:19;3.95;;;0.93;;
85753;SDS011;76193;51.076;-1.794;2024-02-26T12:28:46;4.03;;;1.52;;
85753;SDS011;76193;51.076;-1.794;2024-02-26T12:31:12;1.20;;;0.93;;
85753;SDS011;76193;51.076;-1.794;2024-02-26T12:33:37;1.02;;;0.75;;
85753;SDS011;76193;51.076;-1.794;2024-02-26T12:36:03;1.17;;;0.98;;
85753;SDS011;76193;51.076;-1.794;2024-02-26T12:38:28;1.98;;;0.93;;
85753;SDS011;76193;51.076;-1.794;2024-02-26T12:40:55;1.67;;;1.00;;
85753;SDS011;76193;51.076;-1.794;2024-02-26T12:43:20;1.38;;;0.98;;
85753;SDS011;76193;51.076;-1.794;2024-02-26T12:45:45;1.55;;;1.20;;
85753;SDS011;76193;51.076;-1.794;2024-02-26T12:48:12;1.50;;;1.15;;
85753;SDS011;76193;51.076;-1.794;2024-02-26T12:50:37;1.15;;;0.90;;
85753;SDS011;76193;51.076;-1.794;2024-02-26T12:53:03;2.73;;;1.30;;
85753;SDS011;76193;51.076;-1.794;2024-02-26T12:55:28;1.25;;;1.00;;
85753;SDS011;76193;51.076;-1.794;2024-02-26T12:57:54;2.83;;;1.17;;
85753;SDS011;76193;51.076;-1.794;2024-02-26T13:00:24;5.68;;;1.33;;
85753;SDS011;76193;51.076;-1.794;2024-02-26T13:02:51;1.80;;;1.05;;
85753;SDS011;76193;51.076;-1.794;2024-02-26T13:05:17;3.10;;;0.68;;
85753;SDS011;76193;51.076;-1.794;2024-02-26T13:07:44;1.83;;;1.23;;
85753;SDS011;76193;51.076;-1.794;2024-02-26T13:10:11;1.40;;;1.23;;
85753;SDS011;76193;51.076;-1.794;2024-02-26T13:12:37;1.63;;;0.95;;
85753;SDS011;76193;51.076;-1.794;2024-02-26T13:15:07;2.55;;;1.00;;
85753;SDS011;76193;51.076;-1.794;2024-02-26T13:17:32;3.17;;;1.23;;
85753;SDS011;76193;51.076;-1.794;2024-02-26T13:19:58;2.35;;;0.95;;
85753;SDS011;76193;51.076;-1.794;2024-02-26T13:22:23;1.00;;;0.70;;
85753;SDS011;76193;51.076;-1.794;2024-02-26T13:24:56;2.78;;;1.30;;
85753;SDS011;76193;51.076;-1.794;2024-02-26T13:27:22;0.75;;;0.73;;
85753;SDS011;76193;51.076;-1.794;2024-02-26T13:29:48;1.52;;;0.90;;
85753;SDS011;76193;51.076;-1.794;2024-02-26T13:32:13;1.60;;;0.88;;
85753;SDS011;76193;51.076;-1.794;2024-02-26T13:34:38;1.35;;;1.08;;
85753;SDS011;76193;51.076;-1.794;2024-02-26T13:37:04;1.52;;;0.50;;
85753;SDS011;76193;51.076;-1.794;2024-02-26T13:39:30;1.15;;;0.98;;
85753;SDS011;76193;51.076;-1.794;2024-02-26T13:41:56;0.95;;;0.68;;
85753;SDS011;76193;51.076;-1.794;2024-02-26T13:44:22;3.50;;;1.50;;
85753;SDS011;76193;51.076;-1.794;2024-02-26T13:46:49;2.35;;;1.38;;
85753;SDS011;76193;51.076;-1.794;2024-02-26T13:49:14;1.10;;;0.68;;
85753;SDS011;76193;51.076;-1.794;2024-02-26T13:51:40;4.93;;;1.73;;
85753;SDS011;76193;51.076;-1.794;2024-02-26T13:54:06;1.58;;;0.98;;
85753;SDS011;76193;51.076;-1.794;2024-02-26T13:56:32;2.05;;;1.13;;
85753;SDS011;76193;51.076;-1.794;2024-02-26T13:58:57;0.70;;;0.70;;
85753;SDS011;76193;51.076;-1.794;2024-02-26T14:01:23;3.53;;;1.02;;
85753;SDS011;76193;51.076;-1.794;2024-02-26T14:03:49;1.83;;;1.15;;
85753;SDS011;76193;51.076;-1.794;2024-02-26T14:06:14;1.80;;;1.15;;
85753;SDS011;76193;51.076;-1.794;2024-02-26T14:08:40;1.63;;;1.30;;
85753;SDS011;76193;51.076;-1.794;2024-02-26T14:11:05;1.50;;;0.90;;
85753;SDS011;76193;51.076;-1.794;2024-02-26T14:13:31;1.33;;;1.00;;
85753;SDS011;76193;51.076;-1.794;2024-02-26T14:15:56;1.65;;;0.73;;
85753;SDS011;76193;51.076;-1.794;2024-02-26T14:18:21;2.40;;;0.98;;
85753;SDS011;76193;51.076;-1.794;2024-02-26T14:20:47;0.73;;;0.65;;
85753;SDS011;76193;51.076;-1.794;2024-02-26T14:23:12;1.73;;;1.08;;
85753;SDS011;76193;51.076;-1.794;2024-02-26T14:25:38;4.85;;;1.23;;
85753;SDS011;76193;51.076;-1.794;2024-02-26T14:28:03;1.27;;;0.80;;
85753;SDS011;76193;51.076;-1.794;2024-02-26T14:30:29;1.15;;;1.02;;
85753;SDS011;76193;51.076;-1.794;2024-02-26T14:32:54;0.63;;;0.60;;